createdAt,value
2022-10-17T00:01:34.283Z,15.85
2022-10-17T00:04:05.380Z,15.69
2022-10-17T00:06:36.024Z,15.58
2022-10-17T00:09:06.694Z,15.55
2022-10-17T00:11:37.430Z,15.62
2022-10-17T00:14:08.235Z,15.72
2022-10-17T00:16:39.155Z,15.81
2022-10-17T00:19:09.990Z,15.87
2022-10-17T00:21:40.967Z,15.87
2022-10-17T00:24:11.624Z,15.85
2022-10-17T00:26:42.231Z,15.87
2022-10-17T00:29:12.985Z,15.90
2022-10-17T00:31:43.758Z,15.94
2022-10-17T00:34:14.507Z,15.93
2022-10-17T00:36:45.208Z,15.93
2022-10-17T00:39:15.951Z,15.87
2022-10-17T00:41:46.651Z,15.82
2022-10-17T00:44:52.265Z,15.73
2022-10-17T00:47:25.313Z,15.62
2022-10-17T00:49:56.184Z,15.61
2022-10-17T00:52:33.142Z,15.63
2022-10-17T00:55:09.498Z,15.65
2022-10-17T00:57:41.260Z,15.65
2022-10-17T01:00:14.695Z,15.65
2022-10-17T01:02:45.599Z,15.66
2022-10-17T01:05:17.446Z,15.68
2022-10-17T01:07:50.035Z,15.69
2022-10-17T01:13:04.434Z,15.67
2022-10-17T01:15:49.669Z,15.65
2022-10-17T01:18:34.423Z,15.63
2022-10-17T01:21:31.526Z,15.62
2022-10-17T01:24:35.070Z,15.62
2022-10-17T01:27:45.104Z,15.60
2022-10-17T01:30:42.920Z,15.56
2022-10-17T01:33:18.872Z,15.42
2022-10-17T01:36:01.705Z,15.30
2022-10-17T01:38:40.668Z,15.26
2022-10-17T01:41:21.644Z,15.24
2022-10-17T01:44:00.558Z,15.20
2022-10-17T01:46:35.084Z,15.13
2022-10-17T01:49:09.465Z,15.13
2022-10-17T01:51:44.325Z,15.14
2022-10-17T01:54:20.647Z,15.17
2022-10-17T01:56:54.562Z,15.23
2022-10-17T01:59:30.449Z,15.26
2022-10-17T02:02:02.351Z,15.26
2022-10-17T02:04:33.064Z,15.25
2022-10-17T02:07:11.193Z,15.24
2022-10-17T02:09:42.732Z,15.22
2022-10-17T02:12:32.122Z,15.23
2022-10-17T02:15:19.987Z,15.25
2022-10-17T02:17:56.047Z,15.20
2022-10-17T02:20:33.113Z,15.17
2022-10-17T02:23:10.508Z,15.16
2022-10-17T02:25:46.959Z,15.18
2022-10-17T02:28:26.421Z,15.22
2022-10-17T02:31:01.967Z,15.27
2022-10-17T02:33:37.904Z,15.31
2022-10-17T02:36:13.243Z,15.27
2022-10-17T02:38:46.306Z,15.19
2022-10-17T02:41:20.289Z,15.15
2022-10-17T02:43:52.270Z,15.16
2022-10-17T02:46:25.928Z,15.20
2022-10-17T02:49:02.592Z,15.26
2022-10-17T02:51:38.675Z,15.32
2022-10-17T02:54:15.495Z,15.37
2022-10-17T02:56:54.448Z,15.42
2022-10-17T02:59:27.608Z,15.45
2022-10-17T03:01:58.303Z,15.41
2022-10-17T03:04:28.902Z,15.36
2022-10-17T03:06:59.751Z,15.34
2022-10-17T03:09:30.303Z,15.33
2022-10-17T03:12:01.185Z,15.31
2022-10-17T03:14:32.364Z,15.27
2022-10-17T03:17:03.145Z,15.19
2022-10-17T03:19:34.048Z,15.08
2022-10-17T03:22:04.797Z,15.03
2022-10-17T03:24:36.574Z,15.04
2022-10-17T03:27:07.826Z,15.00
2022-10-17T03:29:38.501Z,14.96
2022-10-17T03:32:09.821Z,14.94
2022-10-17T03:34:40.602Z,14.86
2022-10-17T03:37:11.597Z,14.85
2022-10-17T03:39:42.596Z,14.87
2022-10-17T03:42:13.257Z,14.85
2022-10-17T03:44:43.989Z,14.84
2022-10-17T03:47:14.829Z,14.81
2022-10-17T03:49:45.769Z,14.80
2022-10-17T03:52:17.091Z,14.78
2022-10-17T03:54:48.668Z,14.78
2022-10-17T03:57:20.527Z,14.79
2022-10-17T03:59:53.144Z,14.81
2022-10-17T04:02:24.300Z,14.82
2022-10-17T04:04:54.882Z,14.82
2022-10-17T04:10:02.053Z,14.67
2022-10-17T04:12:32.949Z,14.63
2022-10-17T04:15:04.410Z,14.61
2022-10-17T04:17:37.987Z,14.62
2022-10-17T04:20:11.297Z,14.66
2022-10-17T04:22:42.079Z,14.66
2022-10-17T04:25:14.625Z,14.66
2022-10-17T04:27:49.300Z,14.65
2022-10-17T04:30:20.255Z,14.63
2022-10-17T04:32:50.956Z,14.59
2022-10-17T04:35:24.892Z,14.55
2022-10-17T04:38:01.391Z,14.54
2022-10-17T04:40:31.979Z,14.56
2022-10-17T04:43:03.054Z,14.53
2022-10-17T04:45:38.193Z,14.50
2022-10-17T04:48:09.494Z,14.54
2022-10-17T04:50:40.279Z,14.60
2022-10-17T04:53:24.512Z,14.63
2022-10-17T04:55:55.698Z,14.63
2022-10-17T04:58:27.130Z,14.62
2022-10-17T05:00:58.133Z,14.64
2022-10-17T05:03:32.247Z,14.69
2022-10-17T05:06:07.362Z,14.77
2022-10-17T05:08:38.374Z,14.83
2022-10-17T05:11:19.479Z,14.85
2022-10-17T05:13:54.394Z,14.88
2022-10-17T05:16:26.464Z,14.85
2022-10-17T05:19:00.574Z,14.91
2022-10-17T05:21:37.242Z,14.95
2022-10-17T05:24:10.667Z,14.93
2022-10-17T05:26:42.056Z,14.99
2022-10-17T05:29:12.772Z,15.10
2022-10-17T05:31:46.212Z,15.23
2022-10-17T05:34:16.962Z,15.33
2022-10-17T05:36:48.988Z,15.39
2022-10-17T05:39:20.938Z,15.38
2022-10-17T05:41:52.708Z,15.35
2022-10-17T05:44:23.583Z,15.32
2022-10-17T05:46:57.512Z,15.28
2022-10-17T05:49:46.057Z,15.26
2022-10-17T05:52:19.155Z,15.25
2022-10-17T05:54:58.874Z,15.25
2022-10-17T05:57:30.062Z,15.25
2022-10-17T06:00:01.132Z,15.25
2022-10-17T06:02:51.981Z,15.27
2022-10-17T06:05:24.495Z,15.27
2022-10-17T06:07:58.258Z,15.28
2022-10-17T06:10:33.156Z,15.29
2022-10-17T06:13:04.160Z,15.31
2022-10-17T06:15:35.097Z,15.29
2022-10-17T06:18:09.475Z,15.25
2022-10-17T06:20:45.204Z,15.23
2022-10-17T06:23:18.073Z,15.16
2022-10-17T06:26:02.444Z,15.19
2022-10-17T06:28:34.047Z,15.20
2022-10-17T06:31:09.436Z,15.25
2022-10-17T06:33:40.923Z,15.36
2022-10-17T06:36:15.221Z,15.49
2022-10-17T06:38:46.505Z,15.64
2022-10-17T06:41:25.079Z,15.86
2022-10-17T06:43:57.631Z,16.13
2022-10-17T06:46:40.916Z,16.37
2022-10-17T06:49:13.732Z,16.62
2022-10-17T06:51:52.806Z,16.90
2022-10-17T06:54:28.086Z,17.14
2022-10-17T06:57:17.272Z,17.41
2022-10-17T07:00:07.930Z,17.63
2022-10-17T07:02:46.474Z,17.82
2022-10-17T07:05:17.526Z,17.99
2022-10-17T07:07:51.012Z,18.15
2022-10-17T07:10:23.059Z,18.29
2022-10-17T07:12:53.651Z,18.45
2022-10-17T07:15:24.465Z,18.62
2022-10-17T07:17:55.252Z,18.76
2022-10-17T07:20:26.804Z,18.90
2022-10-17T07:22:57.408Z,18.94
2022-10-17T07:25:28.524Z,19.08
2022-10-17T07:28:04.170Z,19.12
2022-10-17T07:30:36.196Z,19.18
2022-10-17T07:33:12.240Z,19.24
2022-10-17T07:35:43.466Z,19.27
2022-10-17T07:38:14.839Z,19.32
2022-10-17T07:40:45.832Z,19.46
2022-10-17T07:43:16.538Z,19.51
2022-10-17T07:45:47.320Z,19.55
2022-10-17T07:48:18.119Z,19.62
2022-10-17T07:50:49.403Z,19.71
2022-10-17T07:53:20.467Z,19.83
2022-10-17T07:55:51.433Z,19.88
2022-10-17T07:58:22.189Z,19.96
2022-10-17T08:00:52.953Z,20.01
2022-10-17T08:03:24.021Z,20.10
2022-10-17T08:05:57.909Z,20.25
2022-10-17T08:08:29.172Z,20.27
2022-10-17T08:11:05.487Z,20.21
2022-10-17T08:13:37.188Z,20.21
2022-10-17T08:16:10.913Z,20.30
2022-10-17T08:18:42.994Z,20.36
2022-10-17T08:21:13.376Z,20.40
2022-10-17T08:23:44.291Z,20.44
2022-10-17T08:26:17.317Z,20.49
2022-10-17T08:28:48.823Z,20.59
2022-10-17T08:31:22.430Z,20.60
2022-10-17T08:33:53.393Z,20.62
2022-10-17T08:36:24.322Z,20.68
2022-10-17T08:38:54.900Z,20.74
2022-10-17T08:41:45.298Z,20.71
2022-10-17T08:44:26.576Z,20.72
2022-10-17T08:47:00.947Z,20.73
2022-10-17T08:49:40.372Z,20.75
2022-10-17T08:52:17.905Z,20.80
2022-10-17T08:54:50.238Z,20.80
2022-10-17T08:57:21.105Z,20.75
2022-10-17T08:59:55.305Z,20.74
2022-10-17T09:02:49.231Z,20.77
2022-10-17T09:05:41.177Z,20.83
2022-10-17T09:08:23.688Z,20.87
2022-10-17T09:11:03.312Z,20.85
2022-10-17T09:13:48.034Z,20.85
2022-10-17T09:16:38.195Z,20.91
2022-10-17T09:19:18.363Z,20.95
2022-10-17T09:21:53.450Z,20.88
2022-10-17T09:24:32.996Z,20.88
2022-10-17T09:27:04.818Z,20.89
2022-10-17T09:29:40.171Z,20.87
2022-10-17T09:32:20.179Z,20.85
2022-10-17T09:34:52.606Z,20.90
2022-10-17T09:37:32.121Z,20.88
2022-10-17T09:40:03.147Z,20.97
2022-10-17T09:42:36.410Z,21.03
2022-10-17T09:45:19.521Z,21.04
2022-10-17T09:47:59.532Z,21.09
2022-10-17T09:50:34.468Z,21.08
2022-10-17T09:53:14.511Z,21.11
2022-10-17T09:55:48.297Z,21.13
2022-10-17T09:58:21.514Z,21.13
2022-10-17T10:00:52.513Z,21.16
2022-10-17T10:03:25.304Z,21.14
2022-10-17T10:06:05.057Z,21.13
2022-10-17T10:08:39.160Z,21.15
2022-10-17T10:11:13.950Z,21.16
2022-10-17T10:13:46.884Z,21.15
2022-10-17T10:16:21.658Z,21.15
2022-10-17T10:18:53.333Z,21.11
2022-10-17T10:21:25.217Z,21.08
2022-10-17T10:24:14.794Z,21.06
2022-10-17T10:26:48.090Z,21.07
2022-10-17T10:29:30.983Z,21.05
2022-10-17T10:32:11.640Z,21.07
2022-10-17T10:34:51.157Z,21.06
2022-10-17T10:37:24.542Z,21.03
2022-10-17T10:39:58.977Z,21.02
2022-10-17T10:42:33.437Z,21.02
2022-10-17T10:45:48.424Z,21.02
2022-10-17T10:48:21.223Z,20.99
2022-10-17T10:50:54.976Z,20.96
2022-10-17T10:53:39.861Z,20.96
2022-10-17T10:56:17.084Z,20.98
2022-10-17T10:58:55.489Z,20.98
2022-10-17T11:01:34.032Z,20.98
2022-10-17T11:04:21.316Z,20.96
2022-10-17T11:07:00.297Z,20.96
2022-10-17T11:09:43.974Z,20.99
2022-10-17T11:12:21.830Z,21.00
2022-10-17T11:14:59.649Z,21.01
2022-10-17T11:17:39.872Z,21.02
2022-10-17T11:20:27.057Z,21.04
2022-10-17T11:23:04.121Z,21.08
2022-10-17T11:25:37.294Z,21.12
2022-10-17T11:28:16.809Z,21.15
2022-10-17T11:30:53.294Z,21.19
2022-10-17T11:33:33.092Z,21.24
2022-10-17T11:36:07.830Z,21.29
2022-10-17T11:38:50.973Z,21.32
2022-10-17T11:41:28.338Z,21.36
2022-10-17T11:44:05.204Z,21.39
2022-10-17T11:46:38.311Z,21.44
2022-10-17T11:49:19.183Z,21.49
2022-10-17T11:52:00.882Z,21.53
2022-10-17T11:54:37.539Z,21.56
2022-10-17T11:57:27.702Z,21.58
2022-10-17T12:00:10.868Z,21.58
2022-10-17T12:02:48.920Z,21.60
2022-10-17T12:05:23.695Z,21.60
2022-10-17T12:08:01.889Z,21.62
2022-10-17T12:10:40.987Z,21.64
2022-10-17T12:13:45.648Z,21.66
2022-10-17T12:16:51.095Z,21.69
2022-10-17T12:19:38.662Z,21.73
2022-10-17T12:22:28.951Z,21.77
2022-10-17T12:25:02.837Z,21.81
2022-10-17T12:27:43.620Z,21.84
2022-10-17T12:30:23.672Z,21.88
2022-10-17T12:33:08.077Z,21.92
2022-10-17T12:35:40.482Z,21.96
2022-10-17T12:38:29.475Z,21.98
2022-10-17T12:41:07.981Z,22.01
2022-10-17T12:43:55.441Z,22.05
2022-10-17T12:46:51.082Z,22.07
2022-10-17T12:49:42.783Z,22.09
2022-10-17T12:52:43.631Z,22.12
2022-10-17T12:55:19.116Z,22.16
2022-10-17T12:57:58.719Z,22.18
2022-10-17T13:00:38.234Z,22.20
2022-10-17T13:03:16.661Z,22.22
2022-10-17T13:05:53.751Z,22.22
2022-10-17T13:08:28.190Z,22.22
2022-10-17T13:10:59.919Z,22.21
2022-10-17T13:13:40.455Z,22.22
2022-10-17T13:16:28.704Z,22.22
2022-10-17T13:19:00.504Z,22.21
2022-10-17T13:21:31.449Z,22.20
2022-10-17T13:24:02.091Z,22.19
2022-10-17T13:26:32.901Z,22.17
2022-10-17T13:29:12.407Z,22.13
2022-10-17T13:31:45.398Z,22.09
2022-10-17T13:34:21.336Z,22.03
2022-10-17T13:36:57.751Z,21.95
2022-10-17T13:39:52.450Z,21.90
2022-10-17T13:42:27.367Z,21.83
2022-10-17T13:44:59.440Z,21.78
2022-10-17T13:47:33.450Z,21.72
2022-10-17T13:50:12.743Z,21.66
2022-10-17T13:53:06.308Z,21.60
2022-10-17T13:55:37.269Z,21.55
2022-10-17T13:58:18.149Z,21.49
2022-10-17T14:00:50.862Z,21.44
2022-10-17T14:03:23.362Z,21.40
2022-10-17T14:06:13.340Z,21.36
2022-10-17T14:08:53.923Z,21.30
2022-10-17T14:11:33.352Z,21.23
2022-10-17T14:14:07.197Z,21.18
2022-10-17T14:16:41.365Z,21.13
2022-10-17T14:19:24.864Z,21.07
2022-10-17T14:22:14.996Z,21.00
2022-10-17T14:24:44.428Z,20.94
2022-10-17T14:27:30.871Z,20.88
2022-10-17T14:30:04.040Z,20.82
2022-10-17T14:32:37.883Z,20.77
2022-10-17T14:35:37.348Z,20.71
2022-10-17T14:38:10.991Z,20.65
2022-10-17T14:40:52.512Z,20.60
2022-10-17T14:43:25.923Z,20.55
2022-10-17T14:46:00.639Z,20.51
2022-10-17T14:48:32.704Z,20.47
2022-10-17T14:51:12.259Z,20.42
2022-10-17T14:53:44.327Z,20.37
2022-10-17T14:56:29.007Z,20.34
2022-10-17T14:58:59.858Z,20.31
2022-10-17T15:01:30.542Z,20.27
2022-10-17T15:04:01.353Z,20.23
2022-10-17T15:06:34.392Z,20.18
2022-10-17T15:09:05.622Z,20.14
2022-10-17T15:11:36.269Z,20.11
2022-10-17T15:14:06.911Z,20.08
2022-10-17T15:16:39.469Z,20.04
2022-10-17T15:19:10.727Z,20.02
2022-10-17T15:21:44.794Z,20.01
2022-10-17T15:24:17.994Z,20.02
2022-10-17T15:26:49.698Z,20.01
2022-10-17T15:29:20.673Z,20.00
2022-10-17T15:31:51.403Z,19.98
2022-10-17T15:34:22.115Z,19.94
2022-10-17T15:36:54.645Z,19.91
2022-10-17T15:39:25.726Z,19.86
2022-10-17T15:41:56.499Z,19.81
2022-10-17T15:44:27.240Z,19.76
2022-10-17T15:46:58.353Z,19.70
2022-10-17T15:49:29.162Z,19.64
2022-10-17T15:52:00.431Z,19.59
2022-10-17T15:54:31.190Z,19.53
2022-10-17T15:57:02.565Z,19.47
2022-10-17T15:59:36.395Z,19.42
2022-10-17T16:02:12.881Z,19.39
2022-10-17T16:04:44.385Z,19.35
2022-10-17T16:07:15.075Z,19.32
2022-10-17T16:09:45.814Z,19.28
2022-10-17T16:12:20.065Z,19.24
2022-10-17T16:14:50.743Z,19.19
2022-10-17T16:17:21.434Z,19.14
2022-10-17T16:19:52.102Z,19.09
2022-10-17T16:22:30.108Z,19.01
2022-10-17T16:25:07.927Z,19.00
2022-10-17T16:27:39.115Z,18.97
2022-10-17T16:30:11.026Z,18.95
2022-10-17T16:32:41.628Z,18.93
2022-10-17T16:35:17.440Z,18.90
2022-10-17T16:37:48.706Z,18.87
2022-10-17T16:40:20.069Z,18.83
2022-10-17T16:42:50.801Z,18.79
2022-10-17T16:45:23.840Z,18.75
2022-10-17T16:47:54.541Z,18.72
2022-10-17T16:50:25.540Z,18.69
2022-10-17T16:52:56.150Z,18.69
2022-10-17T16:55:26.856Z,18.69
2022-10-17T16:57:57.449Z,18.66
2022-10-17T17:00:28.290Z,18.64
2022-10-17T17:02:58.977Z,18.62
2022-10-17T17:05:29.636Z,18.60
2022-10-17T17:08:01.097Z,18.56
2022-10-17T17:10:31.690Z,18.54
2022-10-17T17:13:03.342Z,18.51
2022-10-17T17:15:33.956Z,18.51
2022-10-17T17:18:05.846Z,18.51
2022-10-17T17:20:36.993Z,18.51
2022-10-17T17:23:07.726Z,18.50
2022-10-17T17:25:39.382Z,18.49
2022-10-17T17:28:10.011Z,18.48
2022-10-17T17:30:41.526Z,18.46
2022-10-17T17:33:12.239Z,18.44
2022-10-17T17:35:42.924Z,18.42
2022-10-17T17:38:13.654Z,18.39
2022-10-17T17:40:50.745Z,18.39
2022-10-17T17:43:22.501Z,18.39
2022-10-17T17:45:53.109Z,18.38
2022-10-17T17:48:24.155Z,18.38
2022-10-17T17:50:54.847Z,18.36
2022-10-17T17:53:25.765Z,18.34
2022-10-17T17:56:05.538Z,18.31
2022-10-17T17:58:36.969Z,18.29
2022-10-17T18:01:15.144Z,18.27
2022-10-17T18:03:46.283Z,18.23
2022-10-17T18:06:18.069Z,18.22
2022-10-17T18:08:50.890Z,18.22
2022-10-17T18:11:22.378Z,18.23
2022-10-17T18:13:57.537Z,18.22
2022-10-17T18:16:29.605Z,18.21
2022-10-17T18:19:05.917Z,18.20
2022-10-17T18:21:38.131Z,18.19
2022-10-17T18:24:09.757Z,18.17
2022-10-17T18:26:40.829Z,18.15
2022-10-17T18:29:12.865Z,18.13
2022-10-17T18:31:43.665Z,18.12
2022-10-17T18:34:14.418Z,18.12
2022-10-17T18:36:45.184Z,18.13
2022-10-17T18:39:15.826Z,18.12
2022-10-17T18:41:46.610Z,18.12
2022-10-17T18:44:17.270Z,18.11
2022-10-17T18:46:47.988Z,18.09
2022-10-17T18:49:21.991Z,17.99
2022-10-17T18:51:52.948Z,18.01
2022-10-17T18:54:24.505Z,17.96
2022-10-17T18:56:56.598Z,17.95
2022-10-17T18:59:27.483Z,17.94
2022-10-17T19:01:58.297Z,17.93
2022-10-17T19:04:29.122Z,17.93
2022-10-17T19:06:59.729Z,17.92
2022-10-17T19:09:30.477Z,17.90
2022-10-17T19:12:01.474Z,17.87
2022-10-17T19:14:32.128Z,17.83
2022-10-17T19:17:04.117Z,17.80
2022-10-17T19:19:33.498Z,17.75
2022-10-17T19:22:05.635Z,17.70
2022-10-17T19:24:36.418Z,17.69
2022-10-17T19:27:07.318Z,17.68
2022-10-17T19:29:37.954Z,17.67
2022-10-17T19:32:15.564Z,17.62
2022-10-17T19:34:48.795Z,17.54
2022-10-17T19:37:19.609Z,17.47
2022-10-17T19:39:51.127Z,17.36
2022-10-17T19:42:21.833Z,17.26
2022-10-17T19:44:52.562Z,17.19
2022-10-17T19:47:23.226Z,17.12
2022-10-17T19:49:53.897Z,17.05
2022-10-17T19:52:24.784Z,16.99
2022-10-17T19:54:55.913Z,16.94
2022-10-17T19:57:27.274Z,16.90
2022-10-17T19:59:58.485Z,16.86
2022-10-17T20:02:29.875Z,16.86
2022-10-17T20:05:17.609Z,16.87
2022-10-17T20:07:49.077Z,16.84
2022-10-17T20:10:19.976Z,16.81
2022-10-17T20:12:50.562Z,16.78
2022-10-17T20:15:21.216Z,16.74
2022-10-17T20:17:51.933Z,16.68
2022-10-17T20:20:22.900Z,16.63
2022-10-17T20:22:54.261Z,16.59
2022-10-17T20:25:25.581Z,16.59
2022-10-17T20:27:56.393Z,16.56
2022-10-17T20:30:27.129Z,16.52
2022-10-17T20:32:57.954Z,16.50
2022-10-17T20:35:28.738Z,16.43
2022-10-17T20:38:00.097Z,16.43
2022-10-17T20:40:35.160Z,16.39
2022-10-17T20:43:07.651Z,16.37
2022-10-17T20:45:50.763Z,16.35
2022-10-17T20:48:21.167Z,16.32
2022-10-17T20:50:52.760Z,16.29
2022-10-17T20:53:38.721Z,16.26
2022-10-17T20:56:23.496Z,16.23
2022-10-17T20:58:55.831Z,16.22
2022-10-17T21:01:25.918Z,16.20
2022-10-17T21:04:02.459Z,16.18
2022-10-17T21:06:41.472Z,16.16
2022-10-17T21:09:12.111Z,16.17
2022-10-17T21:11:43.526Z,16.17
2022-10-17T21:14:16.732Z,16.15
2022-10-17T21:16:47.355Z,16.15
2022-10-17T21:19:18.548Z,16.14
2022-10-17T21:21:49.302Z,16.13
2022-10-17T21:24:20.861Z,16.15
2022-10-17T21:26:55.675Z,16.18
2022-10-17T21:29:27.085Z,16.23
2022-10-17T21:31:57.827Z,16.27
2022-10-17T21:34:28.799Z,16.27
2022-10-17T21:36:59.628Z,16.25
2022-10-17T21:39:30.747Z,16.18
2022-10-17T21:42:01.504Z,16.11
2022-10-17T21:44:32.239Z,16.08
2022-10-17T21:47:03.217Z,16.08
2022-10-17T21:49:34.123Z,16.06
2022-10-17T21:52:07.146Z,16.03
2022-10-17T21:54:37.710Z,15.99
2022-10-17T21:57:08.297Z,15.94
2022-10-17T21:59:39.121Z,15.83
2022-10-17T22:02:09.747Z,15.82
2022-10-17T22:04:40.368Z,15.91
2022-10-17T22:07:11.048Z,15.94
2022-10-17T22:09:41.729Z,15.96
2022-10-17T22:12:12.333Z,15.94
2022-10-17T22:14:44.920Z,16.09
2022-10-17T22:17:15.672Z,16.22
2022-10-17T22:19:46.436Z,16.30
2022-10-17T22:22:17.033Z,16.36
2022-10-17T22:24:47.688Z,16.42
2022-10-17T22:27:18.406Z,16.47
2022-10-17T22:29:49.139Z,16.48
2022-10-17T22:32:22.366Z,16.50
2022-10-17T22:34:53.510Z,16.54
2022-10-17T22:37:24.571Z,16.58
2022-10-17T22:39:55.283Z,16.59
2022-10-17T22:42:25.964Z,16.54
2022-10-17T22:44:56.592Z,16.51
2022-10-17T22:47:27.404Z,16.49
2022-10-17T22:49:58.517Z,16.50
2022-10-17T22:52:29.314Z,16.52
2022-10-17T22:55:00.381Z,16.50
2022-10-17T22:57:31.055Z,16.41
2022-10-17T23:00:01.674Z,16.36
2022-10-17T23:02:32.619Z,16.34
2022-10-17T23:05:07.754Z,16.32
2022-10-17T23:07:38.426Z,16.31
2022-10-17T23:10:10.624Z,16.32
2022-10-17T23:12:41.509Z,16.34
2022-10-17T23:15:13.287Z,16.35
2022-10-17T23:17:44.037Z,16.39
2022-10-17T23:20:15.146Z,16.39
2022-10-17T23:22:45.957Z,16.39
2022-10-17T23:25:16.617Z,16.38
2022-10-17T23:27:47.278Z,16.34
2022-10-17T23:30:18.775Z,16.32
2022-10-17T23:32:49.374Z,16.32
2022-10-17T23:35:20.260Z,16.30
2022-10-17T23:37:51.237Z,16.20
2022-10-17T23:40:22.034Z,16.12
2022-10-17T23:42:52.699Z,16.18
2022-10-17T23:45:23.423Z,16.23
2022-10-17T23:47:54.145Z,16.25
2022-10-17T23:50:24.762Z,16.26
2022-10-17T23:52:55.567Z,16.23
2022-10-17T23:55:26.222Z,16.21
2022-10-17T23:57:56.783Z,16.18
